Mestre Lazaro — CUEP5 — position and weather

sailwx.info

Track history (hours):
 
Tides and Currents Weather Stations Pressure Air Temp Water Temp Dewpoint Dewpoint Depression Visibility Wind Speed Wind Dir Waves Ship Positions

Mestre Lazaro

Last reported at 2017-Oct-19 22:02 UTC. Time now 2017-Oct-23 02:46 UTC.
Position N 41°09' W 008°43'.

Length 22 m.

Type: Fishing. MMSI: 263405850.

Date/timePositionNaut miles runAvg speedWind from/ knotsBaromVisibWave heightAir tempDewpointWater temp
2017-Oct-19 22:02N 41°09' W 008°43'010.7
2017-Oct-19 22:00N 41°09' W 008°42'2 0.1
2017-Oct-19 08:22N 41°11' W 008°42'0 0.0
2017-Oct-19 08:00N 41°11' W 008°42'0 0.0
2017-Oct-19 07:30N 41°11' W 008°42'0 0.0
2017-Oct-19 07:00N 41°11' W 008°42'0 0.0
2017-Oct-19 06:30N 41°11' W 008°42'0 0.0
2017-Oct-19 06:00N 41°11' W 008°42'0 0.0
2017-Oct-19 05:30N 41°11' W 008°42'3 6.4
2017-Oct-19 05:00N 41°08' W 008°44'2 0.2
2017-Oct-18 22:18N 41°07' W 008°43'310.5
2017-Oct-18 22:00N 41°10' W 008°43'1 0.0
2017-Oct-17 10:00N 41°11' W 008°42'0 0.0
2017-Oct-17 09:30N 41°11' W 008°42'0 0.2
2017-Oct-17 09:00N 41°11' W 008°42'0 0.1
2017-Oct-17 08:30N 41°11' W 008°42'0 0.3
2017-Oct-17 08:00N 41°11' W 008°42'0 0.0
2017-Oct-17 07:30N 41°11' W 008°42'0 0.0
2017-Oct-17 07:01N 41°11' W 008°42'0 0.0
2017-Oct-17 06:30N 41°11' W 008°42'0 0.0
2017-Oct-17 06:00N 41°11' W 008°42'0 0.0
2017-Oct-17 05:30N 41°11' W 008°42'2 4.4
2017-Oct-17 05:01N 41°09' W 008°43'1 0.1
2017-Oct-16 22:11N 41°08' W 008°43'210.0
2017-Oct-16 22:00N 41°10' W 008°42'1 0.1
2017-Oct-16 13:41N 41°11' W 008°42'0 0.0
2017-Oct-16 13:31N 41°11' W 008°42'0 0.0
2017-Oct-16 13:01N 41°11' W 008°42'0 0.0
2017-Oct-16 12:31N 41°11' W 008°42'0 0.0
2017-Oct-16 12:01N 41°11' W 008°42'0 0.0
2017-Oct-16 11:31N 41°11' W 008°42'0 0.0
2017-Oct-16 11:01N 41°11' W 008°42'0 0.0
2017-Oct-16 10:31N 41°11' W 008°42'0 0.0
2017-Oct-16 10:00N 41°11' W 008°42'4 0.5
2017-Oct-16 02:40N 41°07' W 008°43'1 9.0
2017-Oct-16 02:30N 41°09' W 008°43'2 4.4
2017-Oct-16 02:01N 41°11' W 008°42'0 0.0
2017-Oct-16 01:31N 41°11' W 008°42'0 0.0
2017-Oct-16 01:00N 41°11' W 008°42'0 0.0
2017-Oct-16 00:31N 41°11' W 008°42'0 0.0
2017-Oct-16 00:01N 41°11' W 008°42'0 0.0
2017-Oct-15 23:31N 41°11' W 008°42'0 0.0
2017-Oct-15 23:01N 41°11' W 008°42'0 0.0
2017-Oct-14 10:41N 41°11' W 008°42'0 0.0
2017-Oct-14 10:30N 41°11' W 008°42'0 0.0
2017-Oct-14 10:01N 41°11' W 008°42'0 0.0
2017-Oct-14 09:30N 41°11' W 008°42'0 0.0
2017-Oct-14 09:00N 41°11' W 008°42'0 0.0
2017-Oct-14 08:31N 41°11' W 008°42'0 0.0
2017-Oct-13 11:30N 41°11' W 008°42'0 0.0
2017-Oct-13 11:00N 41°11' W 008°42'0 0.0
2017-Oct-13 10:30N 41°11' W 008°42'0 0.0
2017-Oct-13 10:00N 41°11' W 008°42'0 0.0
2017-Oct-13 09:30N 41°11' W 008°42'0 0.0
2017-Oct-13 09:00N 41°11' W 008°42'0 0.0
2017-Oct-13 08:31N 41°11' W 008°42'0 0.0
2017-Oct-13 08:01N 41°11' W 008°42'0 0.0
2017-Oct-13 07:30N 41°11' W 008°42'4 8.5
2017-Oct-13 07:00N 41°07' W 008°44'2 0.2
2017-Oct-12 22:08N 41°09' W 008°44'110.2
2017-Oct-12 22:00N 41°10' W 008°43'1 0.1
2017-Oct-12 08:34N 41°11' W 008°42'0 0.0
2017-Oct-12 08:30N 41°11' W 008°42'0 0.0
2017-Oct-12 08:00N 41°11' W 008°42'0 0.0
2017-Oct-12 07:30N 41°11' W 008°42'0 0.0
2017-Oct-12 07:00N 41°11' W 008°42'0 0.0
2017-Oct-12 06:30N 41°11' W 008°42'1 1.7
2017-Oct-12 06:00N 41°10' W 008°42'510.8
2017-Oct-12 05:30N 41°05' W 008°44'5 0.6
2017-Oct-11 22:11N 41°10' W 008°46'210.6
2017-Oct-11 22:00N 41°10' W 008°43'1 0.0
2017-Oct-10 12:48N 41°11' W 008°42'0 0.0
2017-Oct-10 12:30N 41°11' W 008°42'0 0.0
2017-Oct-10 12:00N 41°11' W 008°42'0 0.0
2017-Oct-10 11:30N 41°11' W 008°42'0 0.0
2017-Oct-10 11:00N 41°11' W 008°42'4 8.2
2017-Oct-10 10:30N 41°07' W 008°42'3 0.3
2017-Oct-09 22:16N 41°09' W 008°46'  
Track history (hours):
 
Tides and Currents Weather Stations Pressure Air Temp Water Temp Dewpoint Dewpoint Depression Visibility Wind Speed Wind Dir Waves Ship Positions

Mestre Lazaro

Last reported at 2017-Oct-19 22:02 UTC. Time now 2017-Oct-23 02:46 UTC.
Position N 41°09' W 008°43'.

Length 22 m.

Type: Fishing. MMSI: 263405850.

Date/timePositionNaut miles runAvg speedWind from/ knotsBaromVisibWave heightAir tempDewpointWater temp
2017-Oct-19 22:02N 41°09' W 008°43'010.7
2017-Oct-19 22:00N 41°09' W 008°42'2 0.1
2017-Oct-19 08:22N 41°11' W 008°42'0 0.0
2017-Oct-19 08:00N 41°11' W 008°42'0 0.0
2017-Oct-19 07:30N 41°11' W 008°42'0 0.0
2017-Oct-19 07:00N 41°11' W 008°42'0 0.0
2017-Oct-19 06:30N 41°11' W 008°42'0 0.0
2017-Oct-19 06:00N 41°11' W 008°42'0 0.0
2017-Oct-19 05:30N 41°11' W 008°42'3 6.4
2017-Oct-19 05:00N 41°08' W 008°44'2 0.2
2017-Oct-18 22:18N 41°07' W 008°43'310.5
2017-Oct-18 22:00N 41°10' W 008°43'1 0.0
2017-Oct-17 10:00N 41°11' W 008°42'0 0.0
2017-Oct-17 09:30N 41°11' W 008°42'0 0.2
2017-Oct-17 09:00N 41°11' W 008°42'0 0.1
2017-Oct-17 08:30N 41°11' W 008°42'0 0.3
2017-Oct-17 08:00N 41°11' W 008°42'0 0.0
2017-Oct-17 07:30N 41°11' W 008°42'0 0.0
2017-Oct-17 07:01N 41°11' W 008°42'0 0.0
2017-Oct-17 06:30N 41°11' W 008°42'0 0.0
2017-Oct-17 06:00N 41°11' W 008°42'0 0.0
2017-Oct-17 05:30N 41°11' W 008°42'2 4.4
2017-Oct-17 05:01N 41°09' W 008°43'1 0.1
2017-Oct-16 22:11N 41°08' W 008°43'210.0
2017-Oct-16 22:00N 41°10' W 008°42'1 0.1
2017-Oct-16 13:41N 41°11' W 008°42'0 0.0
2017-Oct-16 13:31N 41°11' W 008°42'0 0.0
2017-Oct-16 13:01N 41°11' W 008°42'0 0.0
2017-Oct-16 12:31N 41°11' W 008°42'0 0.0
2017-Oct-16 12:01N 41°11' W 008°42'0 0.0
2017-Oct-16 11:31N 41°11' W 008°42'0 0.0
2017-Oct-16 11:01N 41°11' W 008°42'0 0.0
2017-Oct-16 10:31N 41°11' W 008°42'0 0.0
2017-Oct-16 10:00N 41°11' W 008°42'4 0.5
2017-Oct-16 02:40N 41°07' W 008°43'1 9.0
2017-Oct-16 02:30N 41°09' W 008°43'2 4.4
2017-Oct-16 02:01N 41°11' W 008°42'0 0.0
2017-Oct-16 01:31N 41°11' W 008°42'0 0.0
2017-Oct-16 01:00N 41°11' W 008°42'0 0.0
2017-Oct-16 00:31N 41°11' W 008°42'0 0.0
2017-Oct-16 00:01N 41°11' W 008°42'0 0.0
2017-Oct-15 23:31N 41°11' W 008°42'0 0.0
2017-Oct-15 23:01N 41°11' W 008°42'0 0.0
2017-Oct-14 10:41N 41°11' W 008°42'0 0.0
2017-Oct-14 10:30N 41°11' W 008°42'0 0.0
2017-Oct-14 10:01N 41°11' W 008°42'0 0.0
2017-Oct-14 09:30N 41°11' W 008°42'0 0.0
2017-Oct-14 09:00N 41°11' W 008°42'0 0.0
2017-Oct-14 08:31N 41°11' W 008°42'0 0.0
2017-Oct-13 11:30N 41°11' W 008°42'0 0.0
2017-Oct-13 11:00N 41°11' W 008°42'0 0.0
2017-Oct-13 10:30N 41°11' W 008°42'0 0.0
2017-Oct-13 10:00N 41°11' W 008°42'0 0.0
2017-Oct-13 09:30N 41°11' W 008°42'0 0.0
2017-Oct-13 09:00N 41°11' W 008°42'0 0.0
2017-Oct-13 08:31N 41°11' W 008°42'0 0.0
2017-Oct-13 08:01N 41°11' W 008°42'0 0.0
2017-Oct-13 07:30N 41°11' W 008°42'4 8.5
2017-Oct-13 07:00N 41°07' W 008°44'2 0.2
2017-Oct-12 22:08N 41°09' W 008°44'110.2
2017-Oct-12 22:00N 41°10' W 008°43'1 0.1
2017-Oct-12 08:34N 41°11' W 008°42'0 0.0
2017-Oct-12 08:30N 41°11' W 008°42'0 0.0
2017-Oct-12 08:00N 41°11' W 008°42'0 0.0
2017-Oct-12 07:30N 41°11' W 008°42'0 0.0
2017-Oct-12 07:00N 41°11' W 008°42'0 0.0
2017-Oct-12 06:30N 41°11' W 008°42'1 1.7
2017-Oct-12 06:00N 41°10' W 008°42'510.8
2017-Oct-12 05:30N 41°05' W 008°44'5 0.6
2017-Oct-11 22:11N 41°10' W 008°46'210.6
2017-Oct-11 22:00N 41°10' W 008°43'1 0.0
2017-Oct-10 12:48N 41°11' W 008°42'0 0.0
2017-Oct-10 12:30N 41°11' W 008°42'0 0.0
2017-Oct-10 12:00N 41°11' W 008°42'0 0.0
2017-Oct-10 11:30N 41°11' W 008°42'0 0.0
2017-Oct-10 11:00N 41°11' W 008°42'4 8.2
2017-Oct-10 10:30N 41°07' W 008°42'3 0.3
2017-Oct-09 22:16N 41°09' W 008°46'  

Dump ship's entire track history